createdAt,value
2022-11-07T00:01:54.561Z,2.33
2022-11-07T00:04:22.320Z,2.50
2022-11-07T00:06:49.796Z,2.55
2022-11-07T00:09:17.486Z,2.17
2022-11-07T00:11:45.300Z,2.22
2022-11-07T00:14:13.560Z,2.50
2022-11-07T00:16:41.224Z,2.33
2022-11-07T00:19:08.719Z,2.50
2022-11-07T00:21:36.139Z,2.33
2022-11-07T00:24:03.877Z,2.10
2022-11-07T00:26:31.411Z,2.22
2022-11-07T00:28:59.331Z,2.17
2022-11-07T00:31:27.308Z,2.05
2022-11-07T00:33:54.888Z,2.00
2022-11-07T00:36:24.432Z,2.42
2022-11-07T00:38:52.145Z,2.33
2022-11-07T00:41:19.685Z,2.70
2022-11-07T00:43:47.351Z,2.05
2022-11-07T00:46:15.714Z,1.88
2022-11-07T00:48:43.791Z,2.20
2022-11-07T00:51:12.718Z,2.10
2022-11-07T00:53:40.266Z,2.03
2022-11-07T00:56:15.886Z,2.08
2022-11-07T00:58:43.620Z,1.90
2022-11-07T01:01:20.746Z,1.70
2022-11-07T01:04:07.540Z,1.95
2022-11-07T01:06:36.424Z,1.92
2022-11-07T01:09:04.245Z,2.00
2022-11-07T01:11:31.722Z,1.70
2022-11-07T01:14:00.225Z,1.67
2022-11-07T01:16:28.275Z,1.70
2022-11-07T01:18:56.050Z,1.98
2022-11-07T01:21:23.872Z,1.80
2022-11-07T01:23:51.224Z,2.08
2022-11-07T01:26:18.862Z,1.75
2022-11-07T01:28:46.800Z,1.98
2022-11-07T01:31:15.262Z,1.85
2022-11-07T01:33:43.394Z,1.83
2022-11-07T01:36:12.285Z,1.88
2022-11-07T01:38:40.486Z,2.20
2022-11-07T01:41:27.377Z,1.92
2022-11-07T01:44:10.333Z,2.40
2022-11-07T01:46:39.133Z,1.98
2022-11-07T01:49:11.279Z,1.88
2022-11-07T01:51:41.137Z,2.13
2022-11-07T01:54:09.141Z,1.90
2022-11-07T01:56:38.257Z,2.35
2022-11-07T01:59:05.946Z,1.60
2022-11-07T02:01:33.632Z,2.05
2022-11-07T02:04:01.640Z,1.75
2022-11-07T02:06:33.083Z,2.00
2022-11-07T02:09:00.523Z,1.80
2022-11-07T02:11:27.976Z,1.73
2022-11-07T02:13:55.680Z,1.75
2022-11-07T02:16:22.971Z,2.35
2022-11-07T02:18:50.571Z,1.83
2022-11-07T02:21:38.483Z,1.75
2022-11-07T02:24:06.182Z,1.52
2022-11-07T02:26:33.966Z,1.67
2022-11-07T02:29:01.819Z,1.60
2022-11-07T02:31:29.123Z,1.55
2022-11-07T02:33:56.497Z,1.70
2022-11-07T02:36:25.524Z,1.83
2022-11-07T02:38:57.763Z,1.88
2022-11-07T02:41:27.708Z,1.80
2022-11-07T02:44:00.659Z,1.58
2022-11-07T02:46:28.673Z,1.40
2022-11-07T02:48:57.553Z,1.73
2022-11-07T02:51:25.283Z,1.80
2022-11-07T02:53:53.147Z,1.50
2022-11-07T02:56:20.709Z,1.73
2022-11-07T02:58:48.405Z,1.60
2022-11-07T03:01:16.442Z,1.75
2022-11-07T03:03:44.968Z,1.90
2022-11-07T03:06:13.595Z,1.80
2022-11-07T03:08:41.432Z,1.60
2022-11-07T03:11:09.588Z,1.67
2022-11-07T03:13:37.283Z,1.42
2022-11-07T03:16:08.906Z,1.23
2022-11-07T03:18:36.529Z,1.33
2022-11-07T03:21:04.833Z,1.83
2022-11-07T03:23:32.261Z,1.60
2022-11-07T03:26:00.055Z,1.80
2022-11-07T03:28:27.543Z,2.00
2022-11-07T03:30:55.347Z,1.67
2022-11-07T03:33:22.890Z,1.83
2022-11-07T03:35:50.384Z,1.25
2022-11-07T03:38:17.991Z,1.70
2022-11-07T03:40:46.724Z,1.70
2022-11-07T03:43:15.113Z,1.80
2022-11-07T03:45:43.257Z,1.70
2022-11-07T03:48:10.963Z,1.50
2022-11-07T03:50:38.712Z,1.30
2022-11-07T03:53:06.162Z,1.33
2022-11-07T03:55:33.644Z,1.77
2022-11-07T03:58:01.015Z,1.60
2022-11-07T04:00:28.570Z,1.88
2022-11-07T04:02:56.150Z,1.70
2022-11-07T04:05:23.692Z,1.80
2022-11-07T04:07:51.387Z,1.70
2022-11-07T04:10:19.120Z,1.80
2022-11-07T04:13:05.213Z,1.83
2022-11-07T04:15:51.177Z,1.80
2022-11-07T04:18:18.548Z,1.80
2022-11-07T04:20:45.836Z,1.55
2022-11-07T04:23:13.766Z,2.42
2022-11-07T04:26:00.094Z,2.40
2022-11-07T04:28:27.560Z,2.00
2022-11-07T04:30:54.997Z,2.20
2022-11-07T04:33:22.603Z,2.05
2022-11-07T04:35:49.990Z,1.85
2022-11-07T04:38:17.777Z,1.63
2022-11-07T04:40:45.430Z,2.10
2022-11-07T04:43:13.415Z,2.42
2022-11-07T04:45:41.349Z,1.83
2022-11-07T04:48:11.049Z,2.20
2022-11-07T04:50:38.778Z,1.83
2022-11-07T04:53:06.776Z,2.00
2022-11-07T04:55:34.321Z,2.17
2022-11-07T04:58:01.791Z,2.00
2022-11-07T05:00:29.435Z,1.80
2022-11-07T05:02:57.234Z,2.22
2022-11-07T05:05:25.045Z,1.90
2022-11-07T05:07:53.116Z,2.58
2022-11-07T05:10:22.506Z,3.10
2022-11-07T05:12:50.195Z,2.80
2022-11-07T05:15:18.298Z,2.30
2022-11-07T05:17:46.393Z,3.00
2022-11-07T05:20:40.037Z,2.97
2022-11-07T05:23:19.548Z,2.63
2022-11-07T05:25:54.826Z,2.72
2022-11-07T05:28:31.144Z,2.28
2022-11-07T05:31:02.386Z,2.40
2022-11-07T05:33:30.329Z,2.05
2022-11-07T05:35:57.802Z,2.40
2022-11-07T05:38:25.229Z,2.30
2022-11-07T05:40:52.905Z,2.00
2022-11-07T05:43:20.224Z,1.80
2022-11-07T05:45:47.920Z,2.08
2022-11-07T05:48:15.464Z,1.65
2022-11-07T05:50:42.970Z,1.95
2022-11-07T05:53:10.540Z,1.90
2022-11-07T05:55:38.277Z,2.00
2022-11-07T05:58:10.278Z,2.47
2022-11-07T06:00:37.969Z,2.20
2022-11-07T06:03:05.753Z,2.55
2022-11-07T06:05:33.569Z,2.90
2022-11-07T06:08:00.892Z,3.30
2022-11-07T06:10:28.319Z,3.70
2022-11-07T06:13:02.830Z,3.70
2022-11-07T06:15:31.284Z,4.88
2022-11-07T06:18:02.484Z,4.45
2022-11-07T06:20:30.248Z,3.30
2022-11-07T06:23:01.968Z,3.60
2022-11-07T06:25:29.913Z,4.13
2022-11-07T06:28:01.442Z,3.88
2022-11-07T06:30:29.307Z,3.50
2022-11-07T06:32:57.055Z,3.70
2022-11-07T06:35:24.727Z,3.30
2022-11-07T06:37:52.162Z,3.22
2022-11-07T06:40:19.506Z,2.63
2022-11-07T06:42:47.156Z,2.80
2022-11-07T06:45:14.765Z,2.50
2022-11-07T06:47:42.226Z,2.63
2022-11-07T06:50:10.168Z,2.35
2022-11-07T06:52:37.447Z,2.58
2022-11-07T06:55:05.283Z,2.70
2022-11-07T06:57:32.730Z,4.45
2022-11-07T07:00:00.335Z,5.05
2022-11-07T07:02:52.211Z,5.00
2022-11-07T07:05:20.768Z,5.68
2022-11-07T07:07:48.580Z,5.20
2022-11-07T07:10:16.291Z,4.30
2022-11-07T07:12:44.631Z,3.95
2022-11-07T07:15:12.104Z,4.03
2022-11-07T07:17:39.581Z,4.22
2022-11-07T07:20:07.269Z,4.20
2022-11-07T07:22:34.860Z,4.13
2022-11-07T07:25:02.309Z,3.70
2022-11-07T07:27:29.803Z,4.25
2022-11-07T07:29:57.140Z,4.45
2022-11-07T07:32:27.672Z,5.10
2022-11-07T07:34:55.151Z,4.78
2022-11-07T07:37:22.675Z,4.32
2022-11-07T07:39:50.392Z,4.20
2022-11-07T07:42:18.065Z,4.53
2022-11-07T07:44:45.750Z,4.22
2022-11-07T07:47:13.069Z,4.93
2022-11-07T07:49:40.462Z,4.32
2022-11-07T07:52:07.767Z,4.05
2022-11-07T07:54:35.432Z,3.83
2022-11-07T07:57:03.021Z,3.90
2022-11-07T07:59:30.492Z,6.10
2022-11-07T08:01:58.376Z,5.68
2022-11-07T08:04:26.250Z,4.35
2022-11-07T08:06:53.721Z,4.13
2022-11-07T08:09:21.314Z,4.38
2022-11-07T08:11:48.782Z,4.10
2022-11-07T08:14:16.144Z,4.18
2022-11-07T08:16:43.867Z,4.45
2022-11-07T08:19:11.268Z,3.85
2022-11-07T08:21:38.559Z,3.70
2022-11-07T08:24:06.066Z,3.50
2022-11-07T08:26:33.893Z,3.67
2022-11-07T08:29:01.265Z,2.17
2022-11-07T08:31:28.740Z,2.08
2022-11-07T08:33:59.805Z,1.40
2022-11-07T08:36:27.673Z,1.60
2022-11-07T08:38:55.124Z,1.42
2022-11-07T08:41:22.765Z,1.65
2022-11-07T08:43:50.717Z,1.52
2022-11-07T08:46:18.160Z,1.65
2022-11-07T08:48:45.869Z,1.60
2022-11-07T08:51:13.331Z,1.50
2022-11-07T08:53:40.799Z,1.60
2022-11-07T08:56:09.763Z,1.60
2022-11-07T08:58:38.014Z,1.35
2022-11-07T09:01:09.185Z,1.50
2022-11-07T09:03:47.827Z,1.73
2022-11-07T09:06:18.506Z,2.05
2022-11-07T09:08:46.224Z,1.70
2022-11-07T09:11:16.075Z,1.83
2022-11-07T09:13:43.845Z,1.30
2022-11-07T09:16:11.555Z,1.63
2022-11-07T09:18:39.416Z,1.30
2022-11-07T09:21:06.993Z,1.38
2022-11-07T09:23:34.678Z,1.58
2022-11-07T09:26:02.085Z,1.70
2022-11-07T09:28:29.789Z,1.15
2022-11-07T09:30:57.927Z,1.33
2022-11-07T09:33:25.865Z,1.35
2022-11-07T09:35:53.561Z,1.35
2022-11-07T09:38:21.047Z,1.27
2022-11-07T09:40:48.710Z,1.40
2022-11-07T09:43:29.133Z,1.42
2022-11-07T09:45:59.640Z,1.40
2022-11-07T09:48:32.875Z,1.35
2022-11-07T09:51:00.571Z,1.23
2022-11-07T09:53:32.669Z,1.30
2022-11-07T09:56:01.033Z,1.20
2022-11-07T09:58:34.620Z,1.40
2022-11-07T10:01:04.098Z,1.20
2022-11-07T10:03:32.939Z,1.48
2022-11-07T10:06:12.501Z,2.05
2022-11-07T10:08:45.236Z,1.45
2022-11-07T10:11:36.074Z,1.25
2022-11-07T10:14:39.213Z,1.33
2022-11-07T10:17:21.925Z,1.80
2022-11-07T10:19:52.611Z,1.10
2022-11-07T10:22:29.585Z,1.17
2022-11-07T10:24:56.932Z,1.30
2022-11-07T10:27:24.326Z,1.08
2022-11-07T10:29:54.965Z,0.95
2022-11-07T10:32:28.577Z,1.35
2022-11-07T10:35:06.475Z,1.35
2022-11-07T10:37:34.073Z,1.20
2022-11-07T10:40:01.774Z,0.95
2022-11-07T10:42:32.007Z,1.23
2022-11-07T10:44:59.629Z,1.30
2022-11-07T10:47:28.422Z,1.30
2022-11-07T10:49:56.526Z,1.20
2022-11-07T10:52:23.994Z,1.10
2022-11-07T10:54:51.475Z,1.30
2022-11-07T10:57:23.891Z,1.10
2022-11-07T10:59:54.285Z,1.17
2022-11-07T11:02:26.291Z,1.10
2022-11-07T11:04:54.527Z,1.30
2022-11-07T11:07:28.061Z,1.30
2022-11-07T11:09:56.984Z,1.10
2022-11-07T11:12:28.465Z,1.10
2022-11-07T11:15:07.170Z,1.30
2022-11-07T11:17:35.089Z,1.20
2022-11-07T11:20:03.149Z,0.95
2022-11-07T11:22:30.728Z,1.15
2022-11-07T11:25:15.746Z,1.42
2022-11-07T11:27:43.398Z,1.38
2022-11-07T11:30:14.400Z,1.70
2022-11-07T11:32:57.199Z,1.15
2022-11-07T11:35:41.552Z,1.33
2022-11-07T11:38:15.088Z,1.20
2022-11-07T11:40:46.004Z,1.60
2022-11-07T11:43:33.928Z,1.60
2022-11-07T11:46:05.899Z,1.50
2022-11-07T11:48:42.256Z,1.45
2022-11-07T11:51:32.946Z,0.73
2022-11-07T11:54:00.892Z,1.65
2022-11-07T11:56:52.757Z,1.00
2022-11-07T11:59:26.187Z,1.10
2022-11-07T12:01:56.690Z,1.80
2022-11-07T12:04:36.569Z,1.58
2022-11-07T12:07:12.843Z,1.13
2022-11-07T12:09:51.290Z,0.65
2022-11-07T12:12:26.775Z,1.60
2022-11-07T12:14:57.575Z,1.63
2022-11-07T12:17:45.820Z,1.35
2022-11-07T12:20:18.930Z,1.38
2022-11-07T12:22:49.459Z,0.90
2022-11-07T12:25:35.942Z,1.20
2022-11-07T12:28:27.996Z,1.17
2022-11-07T12:30:55.340Z,1.25
2022-11-07T12:33:33.624Z,1.35
2022-11-07T12:36:11.763Z,1.02
2022-11-07T12:38:42.059Z,1.13
2022-11-07T12:41:09.403Z,1.27
2022-11-07T12:43:53.457Z,1.10
2022-11-07T12:46:23.952Z,1.42
2022-11-07T12:48:51.401Z,1.15
2022-11-07T12:51:54.339Z,1.20
2022-11-07T12:54:33.944Z,1.00
2022-11-07T12:57:03.758Z,1.00
2022-11-07T12:59:32.872Z,1.27
2022-11-07T13:02:00.407Z,1.30
2022-11-07T13:04:37.412Z,1.30
2022-11-07T13:07:10.685Z,1.08
2022-11-07T13:09:53.352Z,1.13
2022-11-07T13:12:23.641Z,1.38
2022-11-07T13:14:51.853Z,1.20
2022-11-07T13:17:28.005Z,1.10
2022-11-07T13:19:59.682Z,1.23
2022-11-07T13:22:36.179Z,1.13
2022-11-07T13:25:16.421Z,1.15
2022-11-07T13:28:00.842Z,1.30
2022-11-07T13:30:31.516Z,1.35
2022-11-07T13:33:00.828Z,1.13
2022-11-07T13:35:35.670Z,1.00
2022-11-07T13:38:08.590Z,0.90
2022-11-07T13:40:53.997Z,1.10
2022-11-07T13:43:40.298Z,1.02
2022-11-07T13:46:09.517Z,0.90
2022-11-07T13:48:49.364Z,1.23
2022-11-07T13:51:34.276Z,1.10
2022-11-07T13:54:34.464Z,1.20
2022-11-07T13:57:08.207Z,0.73
2022-11-07T13:59:51.160Z,1.10
2022-11-07T14:02:23.436Z,1.05
2022-11-07T14:07:43.717Z,1.08
2022-11-07T14:10:23.541Z,1.13
2022-11-07T14:12:52.725Z,1.20
2022-11-07T14:15:20.437Z,0.90
2022-11-07T14:17:48.233Z,1.27
2022-11-07T14:20:20.110Z,1.30
2022-11-07T14:23:05.790Z,1.25
2022-11-07T14:25:36.037Z,0.80
2022-11-07T14:28:07.090Z,0.80
2022-11-07T14:30:34.875Z,1.13
2022-11-07T14:33:04.931Z,1.00
2022-11-07T14:35:33.837Z,1.30
2022-11-07T14:38:10.200Z,1.00
2022-11-07T14:40:38.330Z,1.20
2022-11-07T14:43:05.828Z,1.45
2022-11-07T14:46:10.099Z,1.30
2022-11-07T14:48:23.251Z,1.30
2022-11-07T14:50:50.602Z,2.53
2022-11-07T14:53:25.332Z,6.95
2022-11-07T14:55:57.812Z,2.83
2022-11-07T14:58:26.239Z,6.32
2022-11-07T15:01:09.090Z,2.00
2022-11-07T15:03:37.898Z,1.10
2022-11-07T15:06:06.257Z,1.13
2022-11-07T15:08:37.891Z,1.50
2022-11-07T15:11:24.655Z,1.23
2022-11-07T15:13:52.272Z,1.17
2022-11-07T15:16:21.074Z,1.15
2022-11-07T15:18:49.807Z,1.20
2022-11-07T15:21:33.919Z,1.05
2022-11-07T15:24:02.681Z,1.35
2022-11-07T15:26:32.326Z,1.10
2022-11-07T15:29:14.967Z,1.27
2022-11-07T15:31:48.631Z,1.40
2022-11-07T15:34:33.940Z,1.65
2022-11-07T15:37:16.567Z,1.88
2022-11-07T15:39:44.302Z,1.55
2022-11-07T15:42:11.747Z,1.50
2022-11-07T15:44:39.209Z,1.92
2022-11-07T15:47:06.979Z,2.08
2022-11-07T15:49:34.926Z,1.35
2022-11-07T15:52:02.997Z,1.83
2022-11-07T15:54:30.715Z,1.77
2022-11-07T15:57:00.733Z,1.52
2022-11-07T15:59:31.862Z,1.50
2022-11-07T16:01:59.457Z,1.30
2022-11-07T16:04:27.104Z,1.80
2022-11-07T16:06:54.959Z,1.65
2022-11-07T16:09:23.032Z,1.48
2022-11-07T16:11:50.599Z,1.25
2022-11-07T16:14:43.040Z,1.80
2022-11-07T16:17:06.992Z,1.73
2022-11-07T16:19:34.300Z,1.50
2022-11-07T16:22:01.795Z,1.73
2022-11-07T16:24:29.292Z,1.83
2022-11-07T16:26:56.983Z,1.45
2022-11-07T16:29:24.383Z,1.67
2022-11-07T16:31:52.150Z,1.60
2022-11-07T16:34:19.592Z,1.73
2022-11-07T16:36:47.895Z,1.30
2022-11-07T16:39:20.555Z,1.25
2022-11-07T16:41:49.055Z,1.17
2022-11-07T16:44:19.416Z,1.15
2022-11-07T16:46:50.884Z,1.25
2022-11-07T16:49:33.811Z,1.13
2022-11-07T16:52:01.576Z,1.10
2022-11-07T16:54:29.029Z,1.38
2022-11-07T16:56:56.720Z,1.60
2022-11-07T16:59:24.824Z,1.65
2022-11-07T17:01:52.742Z,2.40
2022-11-07T17:04:20.294Z,3.13
2022-11-07T17:06:48.160Z,5.38
2022-11-07T17:09:17.124Z,5.55
2022-11-07T17:11:45.504Z,5.30
2022-11-07T17:14:13.489Z,6.20
2022-11-07T17:16:43.039Z,5.25
2022-11-07T17:19:11.000Z,6.22
2022-11-07T17:21:41.054Z,6.20
2022-11-07T17:24:08.971Z,8.55
2022-11-07T17:26:38.041Z,8.30
2022-11-07T17:29:07.001Z,8.43
2022-11-07T17:31:34.747Z,6.97
2022-11-07T17:34:02.519Z,6.75
2022-11-07T17:36:37.459Z,6.10
2022-11-07T17:39:08.422Z,6.07
2022-11-07T17:41:35.904Z,4.80
2022-11-07T17:44:04.347Z,5.18
2022-11-07T17:46:32.986Z,5.80
2022-11-07T17:49:02.023Z,6.05
2022-11-07T17:51:29.764Z,4.25
2022-11-07T17:53:58.514Z,4.40
2022-11-07T17:56:27.314Z,3.47
2022-11-07T17:58:56.154Z,3.58
2022-11-07T18:01:24.838Z,2.50
2022-11-07T18:03:53.210Z,2.67
2022-11-07T18:08:52.885Z,3.30
2022-11-07T18:11:22.176Z,7.25
2022-11-07T18:13:53.034Z,7.22
2022-11-07T18:16:22.197Z,7.13
2022-11-07T18:18:49.651Z,7.15
2022-11-07T18:21:17.274Z,7.57
2022-11-07T18:23:45.218Z,7.85
2022-11-07T18:26:17.468Z,9.07
2022-11-07T18:28:45.181Z,9.27
2022-11-07T18:31:14.128Z,9.73
2022-11-07T18:33:41.705Z,10.02
2022-11-07T18:36:10.907Z,10.35
2022-11-07T18:38:38.550Z,10.40
2022-11-07T18:41:07.239Z,10.80
2022-11-07T18:43:35.553Z,10.60
2022-11-07T18:46:03.388Z,9.57
2022-11-07T18:48:32.606Z,8.88
2022-11-07T18:51:00.936Z,8.35
2022-11-07T18:53:31.845Z,8.20
2022-11-07T18:56:04.687Z,8.85
2022-11-07T18:58:32.968Z,8.48
2022-11-07T19:01:13.097Z,7.80
2022-11-07T19:03:41.242Z,9.77
2022-11-07T19:06:10.247Z,12.77
2022-11-07T19:08:39.182Z,13.23
2022-11-07T19:11:08.294Z,12.13
2022-11-07T19:13:40.855Z,11.00
2022-11-07T19:16:09.850Z,11.27
2022-11-07T19:18:37.696Z,10.23
2022-11-07T19:21:05.310Z,11.07
2022-11-07T19:23:32.913Z,11.95
2022-11-07T19:26:00.283Z,11.38
2022-11-07T19:28:27.642Z,12.98
2022-11-07T19:30:55.327Z,14.98
2022-11-07T19:33:23.066Z,18.25
2022-11-07T19:35:58.693Z,15.48
2022-11-07T19:38:27.458Z,12.93
2022-11-07T19:40:54.896Z,12.82
2022-11-07T19:43:23.065Z,11.85
2022-11-07T19:45:50.579Z,11.98
2022-11-07T19:48:19.149Z,10.88
2022-11-07T19:50:46.691Z,9.98
2022-11-07T19:53:14.492Z,11.32
2022-11-07T19:55:41.996Z,11.60
2022-11-07T19:58:09.443Z,10.95
2022-11-07T20:00:37.179Z,10.23
2022-11-07T20:03:04.939Z,10.48
2022-11-07T20:05:34.648Z,10.27
2022-11-07T20:08:05.212Z,9.80
2022-11-07T20:10:33.602Z,10.13
2022-11-07T20:13:01.147Z,10.88
2022-11-07T20:15:28.496Z,10.63
2022-11-07T20:17:55.984Z,11.00
2022-11-07T20:20:23.345Z,11.90
2022-11-07T20:22:50.993Z,10.73
2022-11-07T20:25:18.545Z,10.45
2022-11-07T20:27:46.222Z,10.90
2022-11-07T20:30:13.942Z,10.55
2022-11-07T20:32:41.681Z,10.20
2022-11-07T20:35:09.119Z,10.88
2022-11-07T20:37:37.090Z,11.65
2022-11-07T20:40:05.522Z,11.13
2022-11-07T20:42:32.902Z,10.85
2022-11-07T20:45:00.385Z,9.55
2022-11-07T20:47:27.902Z,9.02
2022-11-07T20:49:55.208Z,7.50
2022-11-07T20:52:23.001Z,5.13
2022-11-07T20:54:50.478Z,7.00
2022-11-07T20:57:18.075Z,7.72
2022-11-07T20:59:46.060Z,7.47
2022-11-07T21:02:14.067Z,8.20
2022-11-07T21:05:03.165Z,8.45
2022-11-07T21:07:29.097Z,8.50
2022-11-07T21:09:56.662Z,8.68
2022-11-07T21:12:24.122Z,9.02
2022-11-07T21:14:51.835Z,9.23
2022-11-07T21:17:19.509Z,8.68
2022-11-07T21:19:47.110Z,9.75
2022-11-07T21:22:14.599Z,9.40
2022-11-07T21:24:42.144Z,9.40
2022-11-07T21:27:09.531Z,8.48
2022-11-07T21:29:36.973Z,6.78
2022-11-07T21:32:07.494Z,6.95
2022-11-07T21:34:38.554Z,5.32
2022-11-07T21:37:06.383Z,6.03
2022-11-07T21:39:34.105Z,6.10
2022-11-07T21:42:01.435Z,6.28
2022-11-07T21:44:29.127Z,5.22
2022-11-07T21:46:56.582Z,5.53
2022-11-07T21:49:24.282Z,5.53
2022-11-07T21:51:51.757Z,5.63
2022-11-07T21:54:19.508Z,5.60
2022-11-07T21:56:47.221Z,5.88
2022-11-07T21:59:14.561Z,6.78
2022-11-07T22:01:42.752Z,5.00
2022-11-07T22:04:12.448Z,5.60
2022-11-07T22:06:44.557Z,6.20
2022-11-07T22:09:14.020Z,6.22
2022-11-07T22:11:41.746Z,5.88
2022-11-07T22:14:10.522Z,4.35
2022-11-07T22:16:38.257Z,5.25
2022-11-07T22:19:11.123Z,5.50
2022-11-07T22:21:39.831Z,4.53
2022-11-07T22:24:07.242Z,4.43
2022-11-07T22:26:35.029Z,4.90
2022-11-07T22:29:02.528Z,5.45
2022-11-07T22:31:31.485Z,4.85
2022-11-07T22:33:59.968Z,5.22
2022-11-07T22:36:27.745Z,4.70
2022-11-07T22:38:56.787Z,4.82
2022-11-07T22:41:25.187Z,4.80
2022-11-07T22:43:53.845Z,5.00
2022-11-07T22:46:23.517Z,4.50
2022-11-07T22:48:51.704Z,5.03
2022-11-07T22:51:23.688Z,5.07
2022-11-07T22:53:58.489Z,4.68
2022-11-07T22:56:26.250Z,5.00
2022-11-07T22:58:53.572Z,4.72
2022-11-07T23:01:25.941Z,4.85
2022-11-07T23:03:54.096Z,4.30
2022-11-07T23:06:22.142Z,4.15
2022-11-07T23:08:49.628Z,4.20
2022-11-07T23:14:05.916Z,3.70
2022-11-07T23:16:34.787Z,4.43
2022-11-07T23:19:03.614Z,4.20
2022-11-07T23:21:31.603Z,4.20
2022-11-07T23:23:59.658Z,4.10
2022-11-07T23:26:34.172Z,4.80
2022-11-07T23:29:11.288Z,4.57
2022-11-07T23:31:43.381Z,4.57
2022-11-07T23:34:10.912Z,3.70
2022-11-07T23:36:40.973Z,3.78
2022-11-07T23:39:10.468Z,4.00
2022-11-07T23:41:38.048Z,4.00
2022-11-07T23:44:05.578Z,4.43
2022-11-07T23:46:51.694Z,4.05
2022-11-07T23:49:38.057Z,4.63
2022-11-07T23:52:05.648Z,3.65
2022-11-07T23:54:53.023Z,4.22
2022-11-07T23:57:20.637Z,4.00
